Time,TemperatureF,DewpointF,PressureIn,WindDirection,WindDirectionDegrees,WindSpeedMPH,WindSpeedGustMPH,Humidity,HourlyPrecipIn,Conditions,Clouds,dailyrainin,SoftwareType,DateUTC
2013-01-26 14:53:00,63.9,41.5,30.05,North,0,0.0,0.0,44,0.00,,---,0.00,VWS V13.01,2013-01-26 21:53:00,
2013-01-26 14:54:00,63.9,41.5,30.05,North,0,0.0,0.0,44,0.00,,---,0.00,VWS V13.01,2013-01-26 21:54:00,
2013-01-26 14:59:00,64.4,40.2,30.05,WNW,296,13.2,15.4,41,0.00,,---,0.00,VWS V13.01,2013-01-26 21:59:00,
2013-01-26 15:04:00,63.5,40.6,30.05,WNW,286,15.4,15.4,43,0.00,,---,0.00,VWS V13.01,2013-01-26 22:04:00,
2013-01-26 15:09:00,63.3,41.1,30.05,WNW,286,15.4,15.4,44,0.00,,---,0.00,VWS V13.01,2013-01-26 22:09:00,
2013-01-26 15:14:00,63.3,41.1,30.05,SW,218,5.8,15.4,44,0.00,,---,0.00,VWS V13.01,2013-01-26 22:14:00,
2013-01-26 15:20:00,62.1,40.5,30.05,West,271,15.4,15.4,45,0.00,,---,0.00,VWS V13.01,2013-01-26 22:20:00,
2013-01-26 15:25:00,61.5,41.1,30.05,West,262,7.6,15.4,47,0.00,,---,0.00,VWS V13.01,2013-01-26 22:25:00,
2013-01-26 15:30:00,61.0,40.6,30.05,WNW,285,11.0,15.4,47,0.00,,---,0.00,VWS V13.01,2013-01-26 22:30:00,
2013-01-26 15:35:00,60.8,41.0,30.05,West,267,10.5,15.4,48,0.00,,---,0.00,VWS V13.01,2013-01-26 22:35:00,
2013-01-26 15:40:00,60.3,41.6,30.05,WSW,247,10.1,15.4,50,0.00,,---,0.00,VWS V13.01,2013-01-26 22:40:00,
2013-01-26 15:45:00,59.9,41.8,30.05,WSW,252,15.9,15.9,51,0.00,,---,0.00,VWS V13.01,2013-01-26 22:45:00,
2013-01-26 15:50:00,59.9,43.2,30.05,WSW,252,15.9,15.9,54,0.00,,---,0.00,VWS V13.01,2013-01-26 22:50:00,
2013-01-26 15:55:00,60.6,44.8,30.05,WSW,256,5.8,15.9,56,0.00,,---,0.00,VWS V13.01,2013-01-26 22:55:00,
2013-01-26 16:00:00,60.4,43.7,30.05,WSW,256,5.8,5.8,54,0.00,,---,0.00,VWS V13.01,2013-01-26 23:00:00,
2013-01-26 16:05:00,60.1,42.9,30.05,WSW,246,10.5,10.5,53,0.00,,---,0.00,VWS V13.01,2013-01-26 23:05:00,
2013-01-26 16:10:00,59.7,43.5,30.05,SW,236,7.2,13.2,55,0.00,,---,0.00,VWS V13.01,2013-01-26 23:10:00,
2013-01-26 16:16:00,60.3,42.6,30.05,SW,221,6.3,13.2,52,0.00,,---,0.00,VWS V13.01,2013-01-26 23:16:00,
2013-01-26 16:21:00,61.9,43.1,30.05,West,272,4.0,13.2,50,0.00,,---,0.00,VWS V13.01,2013-01-26 23:21:00,
2013-01-26 16:26:00,61.0,41.7,30.05,SSW,194,5.4,13.2,49,0.00,,---,0.00,VWS V13.01,2013-01-26 23:26:00,
2013-01-26 16:31:00,60.3,41.0,30.05,SW,226,8.1,13.2,49,0.00,,---,0.00,VWS V13.01,2013-01-26 23:31:00,
2013-01-26 16:36:00,60.1,40.9,30.05,WSW,241,5.8,13.2,49,0.00,,---,0.00,VWS V13.01,2013-01-26 23:36:00,
2013-01-26 16:41:00,59.9,41.2,30.05,SW,218,4.0,13.2,50,0.00,,---,0.00,VWS V13.01,2013-01-26 23:41:00,
2013-01-26 16:46:00,59.7,40.5,30.05,WSW,245,7.6,13.2,49,0.00,,---,0.00,VWS V13.01,2013-01-26 23:46:00,
2013-01-26 16:51:00,59.5,41.4,30.05,WSW,243,8.7,13.2,51,0.00,,---,0.00,VWS V13.01,2013-01-26 23:51:00,
2013-01-26 16:56:00,59.7,41.6,30.05,WSW,253,6.7,13.2,51,0.00,,---,0.00,VWS V13.01,2013-01-26 23:56:00,
2013-01-26 17:01:00,59.4,41.8,30.05,WSW,237,7.6,7.6,52,0.00,,---,0.00,VWS V13.01,2013-01-27 00:01:00,
2013-01-26 17:06:00,59.2,42.1,30.05,WSW,257,5.8,7.6,53,0.00,,---,0.00,VWS V13.01,2013-01-27 00:06:00,
2013-01-26 17:12:00,59.2,42.6,30.05,SW,215,3.6,7.6,54,0.00,,---,0.00,VWS V13.01,2013-01-27 00:12:00,
2013-01-26 17:17:00,59.2,42.6,30.05,SW,215,3.6,7.6,54,0.00,,---,0.00,VWS V13.01,2013-01-27 00:17:00,
2013-01-26 17:22:00,58.8,42.7,30.05,SSW,197,0.0,7.6,55,0.00,,---,0.00,VWS V13.01,2013-01-27 00:22:00,
2013-01-26 17:27:00,59.2,42.1,30.05,SSW,197,0.0,7.6,53,0.00,,---,0.00,VWS V13.01,2013-01-27 00:27:00,
2013-01-26 17:32:00,59.2,41.1,30.05,SSW,197,0.0,7.6,51,0.00,,---,0.00,VWS V13.01,2013-01-27 00:32:00,
2013-01-26 17:37:00,59.0,41.9,30.05,SSW,207,5.4,7.6,53,0.00,,---,0.00,VWS V13.01,2013-01-27 00:37:00,
2013-01-26 17:41:00,58.8,42.2,30.05,SSW,207,5.4,7.6,54,0.00,,---,0.00,VWS V13.01,2013-01-27 00:41:00,
2013-01-26 17:42:00,58.8,42.2,30.05,SSW,207,5.4,7.6,54,0.00,,---,0.00,VWS V13.01,2013-01-27 00:42:00,
2013-01-26 17:47:00,58.8,42.2,30.05,SSW,207,5.4,7.6,54,0.00,,---,0.00,VWS V13.01,2013-01-27 00:47:00,